createdAt,value
2022-12-09T00:00:11.989Z,99185.31
2022-12-09T00:02:40.907Z,99185.31
2022-12-09T00:05:10.840Z,99184.47
2022-12-09T00:07:39.633Z,99181.03
2022-12-09T00:10:10.041Z,99173.31
2022-12-09T00:12:40.279Z,99174.22
2022-12-09T00:15:09.792Z,99168.22
2022-12-09T00:17:38.763Z,99171.63
2022-12-09T00:20:09.796Z,99169.06
2022-12-09T00:22:38.466Z,99163.06
2022-12-09T00:25:08.223Z,99162.22
2022-12-09T00:27:37.017Z,99167.38
2022-12-09T00:30:09.946Z,99164.78
2022-12-09T00:32:39.064Z,99171.63
2022-12-09T00:35:08.231Z,99162.22
2022-12-09T00:37:36.861Z,99165.63
2022-12-09T00:40:07.211Z,99162.22
2022-12-09T00:42:36.425Z,99162.22
2022-12-09T00:45:07.863Z,99157.94
2022-12-09T00:47:36.920Z,99160.50
2022-12-09T00:50:07.700Z,99154.50
2022-12-09T00:52:36.408Z,99157.06
2022-12-09T00:55:07.655Z,99154.53
2022-12-09T00:57:36.108Z,99155.38
2022-12-09T01:00:08.866Z,99163.06
2022-12-09T01:02:38.173Z,99163.94
2022-12-09T01:05:07.693Z,99161.34
2022-12-09T01:07:37.834Z,99155.38
2022-12-09T01:10:08.093Z,99154.53
2022-12-09T01:12:36.788Z,99158.81
2022-12-09T01:15:08.982Z,99159.66
2022-12-09T01:17:38.314Z,99152.81
2022-12-09T01:20:10.321Z,99151.09
2022-12-09T01:22:39.612Z,99160.53
2022-12-09T01:25:08.986Z,99160.47
2022-12-09T01:27:37.514Z,99157.91
2022-12-09T01:30:10.739Z,99160.53
2022-12-09T01:32:39.489Z,99163.91
2022-12-09T01:35:09.299Z,99155.38
2022-12-09T01:37:38.972Z,99156.19
2022-12-09T01:40:12.025Z,99154.47
2022-12-09T01:42:40.903Z,99157.91
2022-12-09T01:45:40.220Z,99157.03
2022-12-09T01:48:14.223Z,99156.19
2022-12-09T01:50:51.053Z,99151.91
2022-12-09T01:53:21.678Z,99154.44
2022-12-09T01:55:50.760Z,99149.31
2022-12-09T01:58:20.213Z,99141.66
2022-12-09T02:00:50.342Z,99139.91
2022-12-09T02:03:22.407Z,99134.84
2022-12-09T02:05:51.110Z,99136.53
2022-12-09T02:08:21.242Z,99141.66
2022-12-09T02:11:04.991Z,99133.06
2022-12-09T02:13:49.703Z,99137.31
2022-12-09T02:16:24.484Z,99141.59
2022-12-09T02:19:01.256Z,99136.47
2022-12-09T02:21:37.004Z,99127.06
2022-12-09T02:24:15.908Z,99131.31
2022-12-09T02:26:55.820Z,99130.50
2022-12-09T02:29:44.585Z,99120.25
2022-12-09T02:32:41.283Z,99127.94
2022-12-09T02:35:21.909Z,99123.66
2022-12-09T02:37:58.360Z,99115.97
2022-12-09T02:40:35.732Z,99112.56
2022-12-09T02:43:07.898Z,99115.13
2022-12-09T02:45:38.834Z,99107.44
2022-12-09T02:48:08.428Z,99111.75
2022-12-09T02:50:41.734Z,99109.16
2022-12-09T02:53:14.150Z,99108.31
2022-12-09T02:55:46.316Z,99112.59
2022-12-09T02:58:15.070Z,99098.06
2022-12-09T03:00:44.202Z,99097.19
2022-12-09T03:03:16.997Z,99084.38
2022-12-09T03:05:53.531Z,99087.81
2022-12-09T03:08:32.710Z,99083.53
2022-12-09T03:11:05.072Z,99087.78
2022-12-09T03:13:48.140Z,99088.63
2022-12-09T03:16:25.465Z,99080.06
2022-12-09T03:18:59.118Z,99080.91
2022-12-09T03:21:31.094Z,99074.94
2022-12-09T03:24:01.837Z,99074.06
2022-12-09T03:26:35.164Z,99064.66
2022-12-09T03:29:08.139Z,99068.09
2022-12-09T03:31:38.316Z,99071.50
2022-12-09T03:34:11.482Z,99068.03
2022-12-09T03:36:43.745Z,99062.06
2022-12-09T03:39:16.431Z,99061.25
2022-12-09T03:41:47.651Z,99056.09
2022-12-09T03:44:27.718Z,99056.09
2022-12-09T03:46:56.432Z,99054.38
2022-12-09T03:49:24.981Z,99058.66
2022-12-09T03:52:02.369Z,99052.66
2022-12-09T03:54:37.991Z,99051.78
2022-12-09T03:57:07.035Z,99050.06
2022-12-09T03:59:36.654Z,99045.81
2022-12-09T04:02:07.195Z,99050.03
2022-12-09T04:04:36.795Z,99047.53
2022-12-09T04:07:06.976Z,99037.28
2022-12-09T04:09:36.250Z,99046.72
2022-12-09T04:12:05.015Z,99043.31
2022-12-09T04:14:34.082Z,99041.56
2022-12-09T04:17:02.683Z,99046.69
2022-12-09T04:19:31.571Z,99040.72
2022-12-09T04:22:01.890Z,99046.69
2022-12-09T04:24:31.756Z,99037.28
2022-12-09T04:27:00.185Z,99050.94
2022-12-09T04:29:28.888Z,99048.38
2022-12-09T04:31:57.867Z,99039.81
2022-12-09T04:34:26.490Z,99045.78
2022-12-09T04:36:55.060Z,99038.97
2022-12-09T04:39:23.542Z,99044.09
2022-12-09T04:41:53.308Z,99056.03
2022-12-09T04:44:21.967Z,99053.44
2022-12-09T04:46:50.871Z,99047.47
2022-12-09T04:49:19.391Z,99052.59
2022-12-09T04:51:49.160Z,99050.00
2022-12-09T04:54:17.873Z,99046.56
2022-12-09T04:56:46.293Z,99043.97
2022-12-09T04:59:16.853Z,99045.75
2022-12-09T05:01:45.699Z,99044.03
2022-12-09T05:04:14.342Z,99032.97
2022-12-09T05:06:43.421Z,99050.06
2022-12-09T05:09:14.538Z,99035.53
2022-12-09T05:11:43.260Z,99038.97
2022-12-09T05:14:11.892Z,99039.81
2022-12-09T05:16:42.192Z,99037.25
2022-12-09T05:19:11.517Z,99044.09
2022-12-09T05:21:40.622Z,99041.53
2022-12-09T05:24:09.427Z,99044.06
2022-12-09T05:26:38.467Z,99035.50
2022-12-09T05:29:07.577Z,99035.50
2022-12-09T05:31:36.476Z,99025.25
2022-12-09T05:34:07.721Z,99032.03
2022-12-09T05:36:36.537Z,99034.63
2022-12-09T05:39:06.083Z,99022.69
2022-12-09T05:41:34.903Z,99027.81
2022-12-09T05:44:04.011Z,99023.59
2022-12-09T05:46:32.856Z,99027.00
2022-12-09T05:49:01.958Z,99012.47
2022-12-09T05:51:32.925Z,99016.75
2022-12-09T05:54:03.626Z,99009.03
2022-12-09T05:56:33.548Z,99008.16
2022-12-09T05:59:02.513Z,98999.66
2022-12-09T06:01:31.381Z,99000.50
2022-12-09T06:03:59.894Z,99003.13
2022-12-09T06:06:30.348Z,99000.50
2022-12-09T06:09:03.620Z,98998.84
2022-12-09T06:11:33.578Z,98998.84
2022-12-09T06:14:02.217Z,98992.88
2022-12-09T06:16:30.783Z,98988.59
2022-12-09T06:19:00.000Z,98992.00
2022-12-09T06:21:28.602Z,99000.56
2022-12-09T06:23:57.441Z,98999.69
2022-12-09T06:26:30.721Z,99004.81
2022-12-09T06:29:00.514Z,98997.94
2022-12-09T06:31:30.180Z,99004.72
2022-12-09T06:33:59.921Z,99006.47
2022-12-09T06:36:31.264Z,99001.38
2022-12-09T06:39:09.642Z,98997.94
2022-12-09T06:41:43.139Z,99003.16
2022-12-09T06:44:18.379Z,99004.03
2022-12-09T06:46:50.357Z,99008.31
2022-12-09T06:49:19.116Z,99005.75
2022-12-09T06:51:47.876Z,99012.53
2022-12-09T06:54:16.663Z,99015.91
2022-12-09T06:56:46.706Z,99015.91
2022-12-09T06:59:15.571Z,99014.28
2022-12-09T07:01:44.859Z,99016.81
2022-12-09T07:04:15.847Z,99020.22
2022-12-09T07:06:46.457Z,99018.50
2022-12-09T07:09:18.847Z,99011.69
2022-12-09T07:11:49.653Z,99015.06
2022-12-09T07:14:20.111Z,99019.34
2022-12-09T07:16:49.165Z,99015.03
2022-12-09T07:19:20.211Z,99013.31
2022-12-09T07:21:49.507Z,99013.38
2022-12-09T07:24:20.234Z,99006.63
2022-12-09T07:26:50.821Z,99011.75
2022-12-09T07:29:20.118Z,99017.75
2022-12-09T07:31:49.559Z,99019.44
2022-12-09T07:34:18.798Z,99020.28
2022-12-09T07:36:48.199Z,99007.47
2022-12-09T07:39:19.294Z,99017.66
2022-12-09T07:41:53.274Z,99010.78
2022-12-09T07:44:21.790Z,99008.16
2022-12-09T07:46:50.696Z,99011.59
2022-12-09T07:49:19.410Z,99009.88
2022-12-09T07:51:48.375Z,99006.41
2022-12-09T07:54:19.108Z,99012.34
2022-12-09T07:56:50.020Z,99009.78
2022-12-09T07:59:18.565Z,99018.28
2022-12-09T08:01:47.282Z,99018.28
2022-12-09T08:04:16.388Z,99015.75
2022-12-09T08:06:44.952Z,99011.47
2022-12-09T08:09:15.756Z,99006.31
2022-12-09T08:11:44.689Z,99013.13
2022-12-09T08:14:15.022Z,99005.44
2022-12-09T08:16:44.668Z,99006.34
2022-12-09T08:19:14.552Z,99011.47
2022-12-09T08:21:45.504Z,99008.00
2022-12-09T08:24:15.927Z,99011.41
2022-12-09T08:26:44.596Z,99004.63
2022-12-09T08:29:16.355Z,99004.56
2022-12-09T08:31:45.604Z,99008.03
2022-12-09T08:34:15.343Z,99001.16
2022-12-09T08:36:45.080Z,99005.41
2022-12-09T08:39:15.518Z,99007.13
2022-12-09T08:41:44.875Z,99008.81
2022-12-09T08:44:18.787Z,99002.00
2022-12-09T08:46:49.545Z,99005.38
2022-12-09T08:49:21.177Z,98997.72
2022-12-09T08:51:52.640Z,99003.69
2022-12-09T08:54:21.718Z,99002.81
2022-12-09T08:56:55.227Z,99002.75
2022-12-09T08:59:25.560Z,98997.66
2022-12-09T09:01:54.507Z,99000.25
2022-12-09T09:04:24.495Z,98995.97
2022-12-09T09:06:54.738Z,98994.25
2022-12-09T09:09:23.474Z,98995.03
2022-12-09T09:11:52.574Z,98996.78
2022-12-09T09:14:21.351Z,98996.91
2022-12-09T09:16:52.042Z,98997.75
2022-12-09T09:19:26.029Z,98999.53
2022-12-09T09:21:56.261Z,98993.47
2022-12-09T09:24:26.793Z,99003.75
2022-12-09T09:26:56.735Z,99003.81
2022-12-09T09:29:25.735Z,99002.91
2022-12-09T09:31:56.521Z,99001.25
2022-12-09T09:34:26.975Z,98996.16
2022-12-09T09:36:57.837Z,98995.25
2022-12-09T09:39:26.585Z,98997.78
2022-12-09T09:42:01.968Z,98996.91
2022-12-09T09:44:38.890Z,98995.25
2022-12-09T09:47:19.856Z,98990.00
2022-12-09T09:49:55.702Z,98978.94
2022-12-09T09:52:28.394Z,98987.47
2022-12-09T09:54:58.007Z,98986.69
2022-12-09T09:57:36.752Z,98977.31
2022-12-09T10:00:22.379Z,98972.22
2022-12-09T10:03:01.346Z,98974.78
2022-12-09T10:05:34.341Z,98971.41
2022-12-09T10:08:27.079Z,98969.72
2022-12-09T10:11:09.152Z,98967.16
2022-12-09T10:13:48.568Z,98969.75
2022-12-09T10:16:20.963Z,98965.47
2022-12-09T10:19:08.901Z,98962.94
2022-12-09T10:21:43.478Z,98965.53
2022-12-09T10:24:25.021Z,98957.84
2022-12-09T10:27:04.899Z,98959.63
2022-12-09T10:29:56.065Z,98956.19
2022-12-09T10:32:28.811Z,98946.81
2022-12-09T10:34:59.259Z,98957.91
2022-12-09T10:37:32.131Z,98950.22
2022-12-09T10:40:18.157Z,98948.50
2022-12-09T10:43:08.074Z,98957.91
2022-12-09T10:46:15.845Z,98963.88
2022-12-09T10:48:37.665Z,98960.47
2022-12-09T10:51:14.163Z,98961.34
2022-12-09T10:53:48.721Z,98963.91
2022-12-09T10:56:24.356Z,98960.50
2022-12-09T10:59:12.722Z,98958.78
2022-12-09T11:01:51.993Z,98957.88
2022-12-09T11:04:26.859Z,98951.91
2022-12-09T11:07:01.103Z,98951.03
2022-12-09T11:09:32.204Z,98947.63
2022-12-09T11:12:02.269Z,98950.22
2022-12-09T11:14:36.684Z,98945.97
2022-12-09T11:17:18.745Z,98945.09
2022-12-09T11:19:51.430Z,98933.13
2022-12-09T11:22:39.580Z,98934.03
2022-12-09T11:25:23.971Z,98933.16
2022-12-09T11:27:56.272Z,98934.88
2022-12-09T11:30:28.003Z,98938.28
2022-12-09T11:33:03.329Z,98927.19
2022-12-09T11:35:52.828Z,98931.44
2022-12-09T11:38:33.217Z,98928.00
2022-12-09T11:41:07.860Z,98928.88
2022-12-09T11:43:41.276Z,98919.50
2022-12-09T11:46:25.770Z,98918.63
2022-12-09T11:48:58.396Z,98916.94
2022-12-09T11:51:32.919Z,98915.25
2022-12-09T11:54:10.345Z,98916.09
2022-12-09T11:56:41.733Z,98912.66
2022-12-09T11:59:16.466Z,98915.22
2022-12-09T12:01:53.230Z,98912.56
2022-12-09T12:04:28.582Z,98913.34
2022-12-09T12:07:03.495Z,98913.19
2022-12-09T12:09:40.825Z,98907.22
2022-12-09T12:12:19.706Z,98913.97
2022-12-09T12:14:48.314Z,98918.28
2022-12-09T12:17:25.899Z,98917.53
2022-12-09T12:19:56.387Z,98907.28
2022-12-09T12:23:05.101Z,98904.69
2022-12-09T12:25:48.124Z,98901.28
2022-12-09T12:29:06.887Z,98902.84
2022-12-09T12:32:14.554Z,98898.59
2022-12-09T12:34:53.610Z,98902.03
2022-12-09T12:37:39.951Z,98897.06
2022-12-09T12:40:22.015Z,98896.31
2022-12-09T12:43:28.573Z,98905.75
2022-12-09T12:46:21.952Z,98898.06
2022-12-09T12:49:24.308Z,98894.69
2022-12-09T12:52:04.671Z,98898.88
2022-12-09T12:54:45.503Z,98896.28
2022-12-09T12:57:21.227Z,98893.75
2022-12-09T13:00:00.026Z,98883.47
2022-12-09T13:02:41.527Z,98887.81
2022-12-09T13:05:19.962Z,98876.72
2022-12-09T13:07:52.878Z,98882.69
2022-12-09T13:10:31.824Z,98886.16
2022-12-09T13:13:02.016Z,98886.16
2022-12-09T13:15:34.956Z,98877.63
2022-12-09T13:18:12.966Z,98886.13
2022-12-09T13:20:47.849Z,98878.47
2022-12-09T13:23:33.754Z,98877.59
2022-12-09T13:26:19.120Z,98885.22
2022-12-09T13:28:54.307Z,98889.50
2022-12-09T13:31:29.974Z,98878.38
2022-12-09T13:34:18.120Z,98886.94
2022-12-09T13:36:48.920Z,98879.19
2022-12-09T13:39:59.489Z,98877.31
2022-12-09T13:42:56.470Z,98878.19
2022-12-09T13:45:34.832Z,98864.53
2022-12-09T13:48:46.773Z,98871.41
2022-12-09T13:51:16.424Z,98877.47
2022-12-09T13:54:03.793Z,98874.97
2022-12-09T13:56:35.419Z,98869.84
2022-12-09T13:59:43.621Z,98875.00
2022-12-09T14:02:23.107Z,98870.72
2022-12-09T14:05:06.985Z,98865.59
2022-12-09T14:07:42.960Z,98869.88
2022-12-09T14:10:40.776Z,98872.47
2022-12-09T14:13:30.639Z,98875.00
2022-12-09T14:16:19.409Z,98879.28
2022-12-09T14:18:47.842Z,98885.28
2022-12-09T14:21:33.704Z,98882.69
2022-12-09T14:24:36.673Z,98883.59
2022-12-09T14:27:17.842Z,98890.44
2022-12-09T14:29:51.591Z,98887.00
2022-12-09T14:32:24.231Z,98890.41
2022-12-09T14:35:08.879Z,98889.53
2022-12-09T14:38:10.373Z,98886.13
2022-12-09T14:40:56.897Z,98886.97
2022-12-09T14:44:08.569Z,98893.81
2022-12-09T14:46:39.400Z,98893.84
2022-12-09T14:49:16.984Z,98893.00
2022-12-09T14:51:49.959Z,98892.19
2022-12-09T14:54:28.376Z,98902.41
2022-12-09T14:57:00.327Z,98905.84
2022-12-09T14:59:31.697Z,98892.19
2022-12-09T15:02:03.206Z,98903.25
2022-12-09T15:04:35.632Z,98890.44
2022-12-09T15:07:15.800Z,98897.28
2022-12-09T15:09:55.798Z,98902.34
2022-12-09T15:12:31.423Z,98896.41
2022-12-09T15:15:06.411Z,98903.22
2022-12-09T15:17:43.233Z,98897.25
2022-12-09T15:20:27.721Z,98895.53
2022-12-09T15:23:00.470Z,98900.66
2022-12-09T15:25:30.900Z,98894.69
2022-12-09T15:28:01.977Z,98897.22
2022-12-09T15:30:35.168Z,98903.16
2022-12-09T15:33:05.250Z,98903.19
2022-12-09T15:35:35.323Z,98915.13
2022-12-09T15:38:08.764Z,98912.59
2022-12-09T15:40:59.215Z,98912.50
2022-12-09T15:43:27.753Z,98923.56
2022-12-09T15:45:56.535Z,98923.56
2022-12-09T15:48:33.074Z,98921.88
2022-12-09T15:51:06.575Z,98922.69
2022-12-09T15:53:40.677Z,98926.94
2022-12-09T15:56:15.920Z,98929.50
2022-12-09T15:58:49.624Z,98925.25
2022-12-09T16:01:23.846Z,98931.25
2022-12-09T16:03:54.729Z,98932.13
2022-12-09T16:06:28.555Z,98926.09
2022-12-09T16:08:57.059Z,98932.94
2022-12-09T16:11:42.494Z,98934.63
2022-12-09T16:14:11.825Z,98930.31
2022-12-09T16:16:48.333Z,98943.09
2022-12-09T16:19:38.260Z,98942.25
2022-12-09T16:22:09.759Z,98939.72
2022-12-09T16:25:13.483Z,98942.25
2022-12-09T16:27:38.258Z,98950.81
2022-12-09T16:30:15.339Z,98949.94
2022-12-09T16:32:47.926Z,98939.66
2022-12-09T16:35:24.234Z,98949.03
2022-12-09T16:38:17.332Z,98943.13
2022-12-09T16:41:13.358Z,98952.47
2022-12-09T16:43:58.522Z,98944.81
2022-12-09T16:46:41.523Z,98948.25
2022-12-09T16:49:10.223Z,98946.50
2022-12-09T16:51:40.486Z,98942.25
2022-12-09T16:54:20.579Z,98954.16
2022-12-09T16:56:51.381Z,98951.59
2022-12-09T16:59:21.370Z,98953.28
2022-12-09T17:01:50.298Z,98950.78
2022-12-09T17:04:23.482Z,98949.94
2022-12-09T17:06:52.259Z,98948.16
2022-12-09T17:09:21.035Z,98955.88
2022-12-09T17:11:49.616Z,98951.56
2022-12-09T17:14:19.947Z,98955.00
2022-12-09T17:16:48.558Z,98959.31
2022-12-09T17:19:19.570Z,98958.41
2022-12-09T17:21:47.962Z,98952.47
2022-12-09T17:24:17.248Z,98957.50
2022-12-09T17:26:45.699Z,98952.38
2022-12-09T17:29:14.719Z,98959.25
2022-12-09T17:31:44.698Z,98964.34
2022-12-09T17:34:13.165Z,98958.41
2022-12-09T17:36:41.653Z,98960.06
2022-12-09T17:39:12.744Z,98960.09
2022-12-09T17:41:41.215Z,98961.75
2022-12-09T17:44:10.333Z,98961.72
2022-12-09T17:46:38.816Z,98963.47
2022-12-09T17:49:08.613Z,98961.78
2022-12-09T17:51:36.991Z,98960.88
2022-12-09T17:54:06.026Z,98976.22
2022-12-09T17:56:34.562Z,98960.06
2022-12-09T17:59:07.400Z,98970.19
2022-12-09T18:01:37.696Z,98977.09
2022-12-09T18:04:10.489Z,98978.84
2022-12-09T18:06:41.265Z,98978.84
2022-12-09T18:09:12.543Z,98988.97
2022-12-09T18:11:41.543Z,98994.19
2022-12-09T18:14:11.098Z,98989.91
2022-12-09T18:16:39.797Z,98995.84
2022-12-09T18:19:15.312Z,98991.56
2022-12-09T18:21:44.192Z,98995.81
2022-12-09T18:24:12.825Z,98998.38
2022-12-09T18:26:42.353Z,98990.75
2022-12-09T18:29:11.921Z,98988.97
2022-12-09T18:31:40.722Z,98994.03
2022-12-09T18:34:10.618Z,98992.38
2022-12-09T18:36:39.436Z,99005.97
2022-12-09T18:39:08.497Z,98996.72
2022-12-09T18:41:37.049Z,99003.44
2022-12-09T18:44:08.242Z,98999.19
2022-12-09T18:46:39.337Z,98997.56
2022-12-09T18:49:13.074Z,99004.31
2022-12-09T18:51:43.118Z,99000.94
2022-12-09T18:54:17.344Z,98998.28
2022-12-09T18:56:46.632Z,98995.69
2022-12-09T18:59:15.208Z,98995.75
2022-12-09T19:01:46.330Z,98999.91
2022-12-09T19:04:19.403Z,99005.19
2022-12-09T19:06:50.474Z,99005.94
2022-12-09T19:09:21.336Z,99016.00
2022-12-09T19:11:51.574Z,99012.56
2022-12-09T19:14:23.123Z,99013.56
2022-12-09T19:16:52.623Z,99005.09
2022-12-09T19:19:25.560Z,99015.19
2022-12-09T19:21:55.215Z,99016.13
2022-12-09T19:24:26.543Z,99013.56
2022-12-09T19:26:57.922Z,99014.41
2022-12-09T19:29:28.092Z,99017.00
2022-12-09T19:31:58.413Z,99028.13
2022-12-09T19:34:30.520Z,99023.63
2022-12-09T19:37:01.696Z,99019.22
2022-12-09T19:39:34.052Z,99022.53
2022-12-09T19:42:05.085Z,99024.34
2022-12-09T19:45:00.345Z,99022.63
2022-12-09T19:47:23.849Z,99022.63
2022-12-09T19:49:53.635Z,99022.63
2022-12-09T19:52:22.140Z,99021.81
2022-12-09T19:54:50.652Z,99022.59
2022-12-09T19:57:19.156Z,99013.88
2022-12-09T19:59:48.233Z,99013.91
2022-12-09T20:02:16.724Z,99018.13
2022-12-09T20:04:50.195Z,99021.66
2022-12-09T20:07:21.083Z,99013.88
2022-12-09T20:09:49.987Z,99017.25
2022-12-09T20:12:18.460Z,99025.16
2022-12-09T20:14:47.046Z,99019.00
2022-12-09T20:17:16.775Z,99014.84
2022-12-09T20:19:45.579Z,99020.13
2022-12-09T20:22:14.063Z,99017.44
2022-12-09T20:24:44.352Z,99017.56
2022-12-09T20:27:13.040Z,99023.38
2022-12-09T20:29:41.478Z,99018.28
2022-12-09T20:32:10.774Z,99026.94
2022-12-09T20:34:39.676Z,99031.06
2022-12-09T20:37:08.494Z,99025.06
2022-12-09T20:39:37.103Z,99029.25
2022-12-09T20:42:07.299Z,99031.00
2022-12-09T20:44:35.711Z,99039.53
2022-12-09T20:47:04.207Z,99043.06
2022-12-09T20:49:32.676Z,99037.91
2022-12-09T20:52:01.179Z,99039.63
2022-12-09T20:54:29.782Z,99045.56
2022-12-09T20:56:58.178Z,99048.13
2022-12-09T20:59:28.509Z,99052.44
2022-12-09T21:01:57.003Z,99044.88
2022-12-09T21:04:25.528Z,99048.25
2022-12-09T21:06:54.101Z,99052.47
2022-12-09T21:09:27.216Z,99050.75
2022-12-09T21:11:55.703Z,99063.59
2022-12-09T21:14:28.120Z,99052.38
2022-12-09T21:17:03.028Z,99060.94
2022-12-09T21:19:32.545Z,99060.19
2022-12-09T21:22:01.050Z,99055.09
2022-12-09T21:24:29.558Z,99057.69
2022-12-09T21:26:58.153Z,99056.06
2022-12-09T21:29:31.510Z,99054.16
2022-12-09T21:32:02.684Z,99056.66
2022-12-09T21:34:31.695Z,99054.94
2022-12-09T21:37:00.398Z,99052.34
2022-12-09T21:39:29.325Z,99049.84
2022-12-09T21:41:57.759Z,99060.06
2022-12-09T21:44:27.276Z,99055.03
2022-12-09T21:46:55.763Z,99061.00
2022-12-09T21:49:25.991Z,99065.28
2022-12-09T21:51:54.409Z,99054.91
2022-12-09T21:54:22.848Z,99060.06
2022-12-09T21:56:51.290Z,99070.25
2022-12-09T21:59:19.905Z,99066.81
2022-12-09T22:01:48.416Z,99064.34
2022-12-09T22:04:17.847Z,99068.56
2022-12-09T22:06:50.039Z,99066.03
2022-12-09T22:09:21.232Z,99076.31
2022-12-09T22:11:49.948Z,99072.72
2022-12-09T22:14:18.440Z,99078.75
2022-12-09T22:16:47.594Z,99084.66
2022-12-09T22:19:18.618Z,99088.94
2022-12-09T22:21:49.729Z,99087.25
2022-12-09T22:24:19.339Z,99084.75
2022-12-09T22:26:48.558Z,99089.81
2022-12-09T22:29:18.783Z,99090.78
2022-12-09T22:31:47.977Z,99092.34
2022-12-09T22:34:19.871Z,99095.84
2022-12-09T22:36:50.617Z,99096.63
2022-12-09T22:39:22.758Z,99094.94
2022-12-09T22:41:51.876Z,99099.94
2022-12-09T22:44:21.298Z,99100.78
2022-12-09T22:46:50.083Z,99100.75
2022-12-09T22:49:19.795Z,99101.66
2022-12-09T22:51:49.740Z,99085.44
2022-12-09T22:54:18.540Z,99100.66
2022-12-09T22:56:47.059Z,99102.28
2022-12-09T22:59:16.093Z,99104.97
2022-12-09T23:01:47.491Z,99106.69
2022-12-09T23:04:19.071Z,99094.66
2022-12-09T23:06:47.527Z,99100.78
2022-12-09T23:09:21.049Z,99096.28
2022-12-09T23:11:50.527Z,99105.72
2022-12-09T23:14:19.875Z,99099.03
2022-12-09T23:16:48.464Z,99097.25
2022-12-09T23:19:16.815Z,99096.31
2022-12-09T23:21:45.256Z,99097.19
2022-12-09T23:24:24.122Z,99095.38
2022-12-09T23:26:55.393Z,99099.72
2022-12-09T23:29:23.957Z,99093.59
2022-12-09T23:31:52.427Z,99097.97
2022-12-09T23:34:21.268Z,99103.03
2022-12-09T23:36:49.696Z,99095.25
2022-12-09T23:39:20.687Z,99102.97
2022-12-09T23:41:49.731Z,99104.53
2022-12-09T23:44:20.316Z,99108.94
2022-12-09T23:46:49.592Z,99107.31
2022-12-09T23:49:18.680Z,99109.69
2022-12-09T23:51:48.069Z,99104.72
2022-12-09T23:54:19.434Z,99109.00
2022-12-09T23:56:50.710Z,99109.09
2022-12-09T23:59:22.405Z,99109.03
